createdAt,value
2022-10-06T00:04:42.785Z,1024.09
2022-10-06T00:09:43.948Z,1023.98
2022-10-06T00:14:45.137Z,1024.26
2022-10-06T00:19:46.234Z,1024.28
2022-10-06T00:24:47.389Z,1024.25
2022-10-06T00:29:48.581Z,1024.25
2022-10-06T00:34:49.786Z,1024.32
2022-10-06T00:39:50.868Z,1024.27
2022-10-06T00:44:51.987Z,1024.30
2022-10-06T00:49:53.215Z,1024.41
2022-10-06T00:54:54.361Z,1024.30
2022-10-06T00:59:55.596Z,1024.40
2022-10-06T01:04:56.859Z,1024.46
2022-10-06T01:09:58.085Z,1024.46
2022-10-06T01:14:59.379Z,1024.50
2022-10-06T01:20:00.571Z,1024.45
2022-10-06T01:25:01.807Z,1024.39
2022-10-06T01:30:02.885Z,1024.29
2022-10-06T01:35:07.920Z,1024.27
2022-10-06T01:40:05.101Z,1024.40
2022-10-06T01:45:07.182Z,1024.40
2022-10-06T01:50:06.370Z,1024.41
2022-10-06T01:55:07.557Z,1024.50
2022-10-06T02:00:10.000Z,1024.47
2022-10-06T02:05:09.194Z,1024.37
2022-10-06T02:10:11.394Z,1024.44
2022-10-06T02:15:11.558Z,1024.53
2022-10-06T02:20:11.642Z,1024.53
2022-10-06T02:25:10.817Z,1024.58
2022-10-06T02:30:11.962Z,1024.67
2022-10-06T02:35:13.135Z,1024.72
2022-10-06T02:40:14.316Z,1024.84
2022-10-06T02:45:15.459Z,1024.84
2022-10-06T02:50:15.650Z,1024.85
2022-10-06T02:55:16.813Z,1024.87
2022-10-06T03:00:17.919Z,1024.86
2022-10-06T03:05:19.111Z,1024.98
2022-10-06T03:10:20.312Z,1025.03
2022-10-06T03:15:21.521Z,1025.06
2022-10-06T03:20:22.726Z,1025.10
2022-10-06T03:25:23.943Z,1025.04
2022-10-06T03:30:25.015Z,1025.22
2022-10-06T03:35:26.149Z,1025.32
2022-10-06T03:40:28.320Z,1025.41
2022-10-06T03:45:27.467Z,1025.38
2022-10-06T03:50:28.638Z,1025.42
2022-10-06T03:55:30.793Z,1025.45
2022-10-06T04:00:29.968Z,1025.52
2022-10-06T04:05:31.162Z,1025.61
2022-10-06T04:10:32.346Z,1025.75
2022-10-06T04:15:33.621Z,1025.74
2022-10-06T04:20:34.763Z,1025.77
2022-10-06T04:25:35.872Z,1025.79
2022-10-06T04:30:37.059Z,1025.78
2022-10-06T04:35:38.238Z,1025.91
2022-10-06T04:40:39.491Z,1025.96
2022-10-06T04:45:40.728Z,1025.99
2022-10-06T04:50:41.824Z,1025.97
2022-10-06T04:55:42.938Z,1026.04
2022-10-06T05:00:44.130Z,1026.26
2022-10-06T05:05:45.274Z,1026.32
2022-10-06T05:10:46.394Z,1026.40
2022-10-06T05:15:48.661Z,1026.43
2022-10-06T05:20:48.764Z,1026.33
2022-10-06T05:25:48.056Z,1026.41
2022-10-06T05:30:49.229Z,1026.53
2022-10-06T05:35:50.549Z,1026.64
2022-10-06T05:40:51.861Z,1026.71
2022-10-06T05:45:52.984Z,1026.75
2022-10-06T05:50:54.084Z,1026.78
2022-10-06T05:55:55.306Z,1026.96
2022-10-06T06:00:56.511Z,1027.06
2022-10-06T06:05:57.745Z,1027.13
2022-10-06T06:10:59.846Z,1027.07
2022-10-06T06:15:59.089Z,1027.19
2022-10-06T06:21:00.206Z,1027.19
2022-10-06T06:26:05.313Z,1027.17
2022-10-06T06:31:03.451Z,1027.12
2022-10-06T06:36:02.564Z,1027.28
2022-10-06T06:41:03.668Z,1027.33
2022-10-06T06:46:04.827Z,1027.41
2022-10-06T06:51:06.175Z,1027.44
2022-10-06T06:56:07.478Z,1027.48
2022-10-06T07:01:08.840Z,1027.40
2022-10-06T07:06:10.987Z,1027.43
2022-10-06T07:11:10.060Z,1027.40
2022-10-06T07:16:11.483Z,1027.46
2022-10-06T07:21:11.764Z,1027.42
2022-10-06T07:26:12.952Z,1027.49
2022-10-06T07:31:14.093Z,1027.46
2022-10-06T07:36:15.189Z,1027.48
2022-10-06T07:41:20.230Z,1027.42
2022-10-06T07:46:18.677Z,1027.38
2022-10-06T07:51:18.807Z,1027.28
2022-10-06T07:56:17.933Z,1027.24
2022-10-06T08:01:19.134Z,1027.30
2022-10-06T08:06:20.233Z,1027.28
2022-10-06T08:11:22.332Z,1027.22
2022-10-06T08:16:21.471Z,1027.18
2022-10-06T08:21:23.623Z,1027.10
2022-10-06T08:26:23.738Z,1027.14
2022-10-06T08:31:23.955Z,1027.21
2022-10-06T08:36:28.338Z,1027.12
2022-10-06T08:41:25.010Z,1027.11
2022-10-06T08:46:25.135Z,1027.12
2022-10-06T08:51:24.262Z,1027.11
2022-10-06T08:56:26.444Z,1027.16
2022-10-06T09:01:26.911Z,1027.14
2022-10-06T09:06:27.090Z,1027.15
2022-10-06T09:11:27.225Z,1027.12
2022-10-06T09:16:25.667Z,1027.03
2022-10-06T09:21:26.766Z,1027.08
2022-10-06T09:26:27.869Z,1027.10
2022-10-06T09:31:29.032Z,1027.03
2022-10-06T09:36:30.183Z,1027.08
2022-10-06T09:41:31.271Z,1027.03
2022-10-06T09:46:33.362Z,1027.07
2022-10-06T09:51:32.464Z,1027.02
2022-10-06T09:56:33.560Z,1027.02
2022-10-06T10:01:35.658Z,1027.00
2022-10-06T10:06:34.767Z,1026.97
2022-10-06T10:11:35.931Z,1026.86
2022-10-06T10:16:37.070Z,1026.92
2022-10-06T10:21:38.210Z,1026.75
2022-10-06T10:26:39.313Z,1026.78
2022-10-06T10:31:40.531Z,1026.80
2022-10-06T10:36:53.487Z,1026.70
2022-10-06T10:41:43.574Z,1026.76
2022-10-06T10:46:42.677Z,1026.74
2022-10-06T10:51:43.783Z,1026.70
2022-10-06T10:56:45.873Z,1026.67
2022-10-06T11:01:45.023Z,1026.65
2022-10-06T11:06:46.144Z,1026.60
2022-10-06T11:11:52.053Z,1026.64
2022-10-06T11:16:47.521Z,1026.49
2022-10-06T11:21:50.643Z,1026.45
2022-10-06T11:26:50.786Z,1026.42
2022-10-06T11:31:49.990Z,1026.35
2022-10-06T11:36:51.153Z,1026.29
2022-10-06T11:41:52.310Z,1026.23
2022-10-06T11:46:53.491Z,1026.26
2022-10-06T11:51:58.355Z,1026.20
2022-10-06T11:56:54.634Z,1026.13
2022-10-06T12:01:55.995Z,1026.06
2022-10-06T12:06:56.217Z,1025.98
2022-10-06T12:11:55.398Z,1026.02
2022-10-06T12:17:18.350Z,1025.99
2022-10-06T12:21:57.466Z,1025.96
2022-10-06T12:26:58.570Z,1025.82
2022-10-06T12:32:00.678Z,1025.83
2022-10-06T12:36:59.770Z,1025.82
2022-10-06T12:42:00.889Z,1025.77
2022-10-06T12:47:02.003Z,1025.77
2022-10-06T12:52:05.006Z,1025.82
2022-10-06T12:57:03.657Z,1025.74
2022-10-06T13:02:05.835Z,1025.74
2022-10-06T13:07:08.620Z,1025.67
2022-10-06T13:12:06.983Z,1025.58
2022-10-06T13:17:06.151Z,1025.59
2022-10-06T13:22:07.316Z,1025.56
2022-10-06T13:27:09.435Z,1025.51
2022-10-06T13:32:08.550Z,1025.52
2022-10-06T13:37:09.690Z,1025.46
2022-10-06T13:42:09.822Z,1025.45
2022-10-06T13:47:10.915Z,1025.41
2022-10-06T13:52:13.603Z,1025.43
2022-10-06T13:57:13.784Z,1025.38
2022-10-06T14:02:14.233Z,1025.34
2022-10-06T14:07:14.312Z,1025.32
2022-10-06T14:12:13.419Z,1025.32
2022-10-06T14:17:15.509Z,1025.34
2022-10-06T14:22:14.602Z,1025.30
2022-10-06T14:27:17.708Z,1025.22
2022-10-06T14:32:16.816Z,1025.18
2022-10-06T14:37:17.903Z,1025.22
2022-10-06T14:42:19.013Z,1025.17
2022-10-06T14:47:20.112Z,1025.16
2022-10-06T14:52:21.214Z,1025.13
2022-10-06T14:57:22.355Z,1025.09
2022-10-06T15:02:23.499Z,1025.11
2022-10-06T15:07:24.591Z,1025.09
2022-10-06T15:12:29.430Z,1025.07
2022-10-06T15:17:28.634Z,1025.04
2022-10-06T15:22:28.726Z,1025.02
2022-10-06T15:27:27.872Z,1025.01
2022-10-06T15:32:30.005Z,1025.04
2022-10-06T15:37:30.096Z,1025.03
2022-10-06T15:42:29.204Z,1024.99
2022-10-06T15:47:32.317Z,1024.93
2022-10-06T15:52:32.426Z,1024.96
2022-10-06T15:57:31.541Z,1024.96
2022-10-06T16:02:33.753Z,1025.01
2022-10-06T16:07:32.863Z,1025.02
2022-10-06T16:12:35.039Z,1024.97
2022-10-06T16:17:34.137Z,1025.03
2022-10-06T16:22:35.625Z,1025.07
2022-10-06T16:27:35.027Z,1025.06
2022-10-06T16:32:37.407Z,1025.06
2022-10-06T16:37:36.736Z,1025.05
2022-10-06T16:42:38.116Z,1025.05
2022-10-06T16:47:38.431Z,1025.13
2022-10-06T16:52:37.790Z,1025.13
2022-10-06T16:57:37.060Z,1025.12
2022-10-06T17:02:39.381Z,1025.15
2022-10-06T17:07:38.755Z,1025.16
2022-10-06T17:12:40.155Z,1025.19
2022-10-06T17:17:40.808Z,1025.26
2022-10-06T17:22:40.559Z,1025.31
2022-10-06T17:27:42.228Z,1025.38
2022-10-06T17:32:40.744Z,1025.41
2022-10-06T17:37:40.239Z,1025.44
2022-10-06T17:42:38.548Z,1025.54
2022-10-06T17:47:42.045Z,1025.49
2022-10-06T17:52:43.516Z,1025.55
2022-10-06T17:57:42.839Z,1025.50
2022-10-06T18:02:44.726Z,1025.51
2022-10-06T18:07:44.338Z,1025.52
2022-10-06T18:12:45.514Z,1025.49
2022-10-06T18:17:47.827Z,1025.46
2022-10-06T18:22:47.257Z,1025.49
2022-10-06T18:27:48.460Z,1025.47
2022-10-06T18:37:53.129Z,1025.45
2022-10-06T18:42:50.306Z,1025.52
2022-10-06T18:47:51.499Z,1025.48
2022-10-06T18:52:52.766Z,1025.50
2022-10-06T18:57:54.292Z,1025.52
2022-10-06T19:02:53.866Z,1025.52
2022-10-06T19:07:53.340Z,1025.48
2022-10-06T19:12:52.591Z,1025.55
2022-10-06T19:17:53.951Z,1025.53
2022-10-06T19:22:55.603Z,1025.58
2022-10-06T19:27:55.940Z,1025.57
2022-10-06T19:32:55.202Z,1025.53
2022-10-06T19:37:56.611Z,1025.56
2022-10-06T19:42:58.061Z,1025.56
2022-10-06T19:47:56.491Z,1025.56
2022-10-06T19:52:55.695Z,1025.58
2022-10-06T19:57:56.962Z,1025.67
2022-10-06T20:02:59.101Z,1025.71
2022-10-06T20:07:57.295Z,1025.65
2022-10-06T20:12:58.408Z,1025.65
2022-10-06T20:17:59.500Z,1025.63
2022-10-06T20:23:00.693Z,1025.62
2022-10-06T20:28:06.696Z,1025.70
2022-10-06T20:32:57.342Z,1025.67
2022-10-06T20:38:03.457Z,1025.63
2022-10-06T20:43:02.674Z,1025.61
2022-10-06T20:48:04.803Z,1025.64
2022-10-06T20:53:04.160Z,1025.56
2022-10-06T20:58:05.429Z,1025.56
2022-10-06T21:03:06.698Z,1025.55
2022-10-06T21:08:07.882Z,1025.56
2022-10-06T21:13:09.195Z,1025.57
2022-10-06T21:18:13.374Z,1025.59
2022-10-06T21:23:10.584Z,1025.51
2022-10-06T21:28:11.874Z,1025.51
2022-10-06T21:33:14.041Z,1025.50
2022-10-06T21:38:13.213Z,1025.47
2022-10-06T21:43:14.429Z,1025.48
2022-10-06T21:48:15.635Z,1025.44
2022-10-06T21:53:17.846Z,1025.31
2022-10-06T21:58:17.039Z,1025.25
2022-10-06T22:03:18.268Z,1025.24
2022-10-06T22:08:20.528Z,1025.23
2022-10-06T22:13:20.700Z,1025.20
2022-10-06T22:18:19.866Z,1025.22
2022-10-06T22:23:21.113Z,1025.23
2022-10-06T22:28:22.502Z,1025.15
2022-10-06T22:33:23.771Z,1025.13
2022-10-06T22:38:24.997Z,1025.06
2022-10-06T22:43:26.214Z,1024.99
2022-10-06T22:48:31.324Z,1024.95
2022-10-06T22:53:29.007Z,1024.82
2022-10-06T22:58:30.335Z,1024.81
2022-10-06T23:03:32.567Z,1024.89
2022-10-06T23:08:35.234Z,1024.90
2022-10-06T23:13:32.721Z,1024.88
2022-10-06T23:18:33.925Z,1024.90
2022-10-06T23:23:35.127Z,1024.81
2022-10-06T23:28:36.461Z,1024.87
2022-10-06T23:33:37.740Z,1024.90
2022-10-06T23:38:38.909Z,1024.91
2022-10-06T23:43:41.135Z,1024.95
2022-10-06T23:48:40.345Z,1024.92
2022-10-06T23:53:41.632Z,1024.91
2022-10-06T23:58:42.922Z,1024.86
